sensor_id;sensor_type;location;lat;lon;timestamp;P1;durP1;ratioP1;P2;durP2;ratioP2
12114;SDS011;6121;49.810;6.418;2022-12-18T00:02:06;272.73;;;112.30;;
12114;SDS011;6121;49.810;6.418;2022-12-18T00:04:32;274.45;;;111.40;;
12114;SDS011;6121;49.810;6.418;2022-12-18T00:06:57;282.47;;;111.07;;
12114;SDS011;6121;49.810;6.418;2022-12-18T00:09:23;297.55;;;124.30;;
12114;SDS011;6121;49.810;6.418;2022-12-18T00:11:49;273.98;;;109.50;;
12114;SDS011;6121;49.810;6.418;2022-12-18T00:14:14;285.63;;;114.83;;
12114;SDS011;6121;49.810;6.418;2022-12-18T00:16:42;299.10;;;112.37;;
12114;SDS011;6121;49.810;6.418;2022-12-18T00:19:09;310.65;;;118.30;;
12114;SDS011;6121;49.810;6.418;2022-12-18T00:21:35;298.90;;;110.23;;
12114;SDS011;6121;49.810;6.418;2022-12-18T00:24:01;310.13;;;116.63;;
12114;SDS011;6121;49.810;6.418;2022-12-18T00:26:31;289.77;;;106.13;;
12114;SDS011;6121;49.810;6.418;2022-12-18T00:28:58;316.42;;;117.28;;
12114;SDS011;6121;49.810;6.418;2022-12-18T00:31:25;320.90;;;114.10;;
12114;SDS011;6121;49.810;6.418;2022-12-18T00:33:53;305.63;;;112.40;;
12114;SDS011;6121;49.810;6.418;2022-12-18T00:36:21;296.15;;;107.32;;
12114;SDS011;6121;49.810;6.418;2022-12-18T00:38:48;298.95;;;107.82;;
12114;SDS011;6121;49.810;6.418;2022-12-18T00:41:15;310.53;;;110.80;;
12114;SDS011;6121;49.810;6.418;2022-12-18T00:44:02;336.35;;;124.38;;
12114;SDS011;6121;49.810;6.418;2022-12-18T00:46:29;328.10;;;106.50;;
12114;SDS011;6121;49.810;6.418;2022-12-18T00:48:55;351.55;;;122.03;;
12114;SDS011;6121;49.810;6.418;2022-12-18T00:51:20;341.17;;;114.90;;
12114;SDS011;6121;49.810;6.418;2022-12-18T00:53:46;343.85;;;114.13;;
12114;SDS011;6121;49.810;6.418;2022-12-18T00:56:11;336.77;;;111.77;;
12114;SDS011;6121;49.810;6.418;2022-12-18T00:58:37;332.95;;;108.90;;
12114;SDS011;6121;49.810;6.418;2022-12-18T01:01:06;345.35;;;117.45;;
12114;SDS011;6121;49.810;6.418;2022-12-18T01:03:32;333.30;;;109.25;;
12114;SDS011;6121;49.810;6.418;2022-12-18T01:05:57;333.40;;;110.47;;
12114;SDS011;6121;49.810;6.418;2022-12-18T01:08:23;338.27;;;115.63;;
12114;SDS011;6121;49.810;6.418;2022-12-18T01:10:49;308.23;;;109.90;;
12114;SDS011;6121;49.810;6.418;2022-12-18T01:13:15;300.48;;;108.72;;
12114;SDS011;6121;49.810;6.418;2022-12-18T01:15:47;302.55;;;111.28;;
12114;SDS011;6121;49.810;6.418;2022-12-18T01:18:14;303.80;;;109.15;;
12114;SDS011;6121;49.810;6.418;2022-12-18T01:20:39;309.17;;;108.40;;
12114;SDS011;6121;49.810;6.418;2022-12-18T01:23:05;228.63;;;103.93;;
12114;SDS011;6121;49.810;6.418;2022-12-18T01:25:30;226.73;;;108.72;;
12114;SDS011;6121;49.810;6.418;2022-12-18T01:27:56;227.37;;;106.13;;
12114;SDS011;6121;49.810;6.418;2022-12-18T01:30:22;319.83;;;119.57;;
12114;SDS011;6121;49.810;6.418;2022-12-18T01:32:47;322.40;;;113.32;;
12114;SDS011;6121;49.810;6.418;2022-12-18T01:35:13;315.80;;;110.40;;
12114;SDS011;6121;49.810;6.418;2022-12-18T01:37:38;306.77;;;109.33;;
12114;SDS011;6121;49.810;6.418;2022-12-18T01:40:04;316.65;;;123.82;;
12114;SDS011;6121;49.810;6.418;2022-12-18T01:42:30;315.58;;;111.05;;
12114;SDS011;6121;49.810;6.418;2022-12-18T01:45:04;306.23;;;106.47;;
12114;SDS011;6121;49.810;6.418;2022-12-18T01:47:49;314.03;;;109.20;;
12114;SDS011;6121;49.810;6.418;2022-12-18T01:50:25;321.60;;;118.50;;
12114;SDS011;6121;49.810;6.418;2022-12-18T01:52:55;286.67;;;110.00;;
12114;SDS011;6121;49.810;6.418;2022-12-18T01:55:28;320.50;;;108.00;;
12114;SDS011;6121;49.810;6.418;2022-12-18T01:57:58;310.55;;;102.78;;
12114;SDS011;6121;49.810;6.418;2022-12-18T02:00:25;309.02;;;114.43;;
12114;SDS011;6121;49.810;6.418;2022-12-18T02:02:52;277.42;;;108.28;;
12114;SDS011;6121;49.810;6.418;2022-12-18T02:05:44;317.42;;;114.70;;
12114;SDS011;6121;49.810;6.418;2022-12-18T02:13:32;304.10;;;111.70;;
12114;SDS011;6121;49.810;6.418;2022-12-18T02:16:10;303.55;;;105.28;;
12114;SDS011;6121;49.810;6.418;2022-12-18T02:18:40;301.58;;;104.38;;
12114;SDS011;6121;49.810;6.418;2022-12-18T02:21:18;300.03;;;109.73;;
12114;SDS011;6121;49.810;6.418;2022-12-18T02:24:30;296.60;;;112.88;;
12114;SDS011;6121;49.810;6.418;2022-12-18T02:27:09;293.80;;;106.78;;
12114;SDS011;6121;49.810;6.418;2022-12-18T02:32:15;261.48;;;104.45;;
12114;SDS011;6121;49.810;6.418;2022-12-18T02:34:46;223.63;;;100.13;;
12114;SDS011;6121;49.810;6.418;2022-12-18T02:37:16;169.65;;;94.97;;
12114;SDS011;6121;49.810;6.418;2022-12-18T02:39:44;194.75;;;104.13;;
12114;SDS011;6121;49.810;6.418;2022-12-18T02:42:13;266.27;;;101.68;;
12114;SDS011;6121;49.810;6.418;2022-12-18T02:44:57;274.40;;;102.53;;
12114;SDS011;6121;49.810;6.418;2022-12-18T02:47:24;294.17;;;109.13;;
12114;SDS011;6121;49.810;6.418;2022-12-18T02:55:13;219.60;;;101.13;;
12114;SDS011;6121;49.810;6.418;2022-12-18T03:00:37;256.77;;;110.27;;
12114;SDS011;6121;49.810;6.418;2022-12-18T03:03:13;319.50;;;111.80;;
12114;SDS011;6121;49.810;6.418;2022-12-18T03:05:44;337.33;;;112.43;;
12114;SDS011;6121;49.810;6.418;2022-12-18T03:08:29;326.25;;;104.57;;
12114;SDS011;6121;49.810;6.418;2022-12-18T03:11:03;337.45;;;112.40;;
12114;SDS011;6121;49.810;6.418;2022-12-18T03:13:39;337.98;;;109.95;;
12114;SDS011;6121;49.810;6.418;2022-12-18T03:16:24;195.90;;;93.63;;
12114;SDS011;6121;49.810;6.418;2022-12-18T03:18:57;295.70;;;112.90;;
12114;SDS011;6121;49.810;6.418;2022-12-18T03:21:38;338.00;;;111.47;;
12114;SDS011;6121;49.810;6.418;2022-12-18T03:24:08;333.85;;;110.03;;
12114;SDS011;6121;49.810;6.418;2022-12-18T03:26:35;325.17;;;103.33;;
12114;SDS011;6121;49.810;6.418;2022-12-18T03:29:11;328.95;;;110.18;;
12114;SDS011;6121;49.810;6.418;2022-12-18T03:31:42;315.75;;;105.40;;
12114;SDS011;6121;49.810;6.418;2022-12-18T03:34:17;316.65;;;108.97;;
12114;SDS011;6121;49.810;6.418;2022-12-18T03:36:48;327.53;;;104.87;;
12114;SDS011;6121;49.810;6.418;2022-12-18T03:39:14;345.67;;;118.70;;
12114;SDS011;6121;49.810;6.418;2022-12-18T03:41:44;331.27;;;105.15;;
12114;SDS011;6121;49.810;6.418;2022-12-18T03:44:20;327.80;;;109.25;;
12114;SDS011;6121;49.810;6.418;2022-12-18T03:47:11;324.88;;;104.00;;
12114;SDS011;6121;49.810;6.418;2022-12-18T03:53:23;340.27;;;108.72;;
12114;SDS011;6121;49.810;6.418;2022-12-18T03:55:22;13.00;;;9.52;;
12114;SDS011;6121;49.810;6.418;2022-12-18T03:57:49;13.07;;;10.20;;
12114;SDS011;6121;49.810;6.418;2022-12-18T04:00:18;18.38;;;13.38;;
12114;SDS011;6121;49.810;6.418;2022-12-18T04:02:46;14.97;;;10.90;;
12114;SDS011;6121;49.810;6.418;2022-12-18T04:05:16;13.30;;;9.90;;
12114;SDS011;6121;49.810;6.418;2022-12-18T04:07:43;14.25;;;10.45;;
12114;SDS011;6121;49.810;6.418;2022-12-18T04:10:11;70.70;;;56.92;;
12114;SDS011;6121;49.810;6.418;2022-12-18T04:12:38;173.70;;;98.00;;
12114;SDS011;6121;49.810;6.418;2022-12-18T04:15:04;223.52;;;100.80;;
12114;SDS011;6121;49.810;6.418;2022-12-18T04:17:31;261.98;;;111.05;;
12114;SDS011;6121;49.810;6.418;2022-12-18T04:19:56;286.93;;;116.83;;
12114;SDS011;6121;49.810;6.418;2022-12-18T04:22:22;285.30;;;110.83;;
12114;SDS011;6121;49.810;6.418;2022-12-18T04:24:47;288.95;;;106.07;;
12114;SDS011;6121;49.810;6.418;2022-12-18T04:27:13;275.87;;;101.77;;
12114;SDS011;6121;49.810;6.418;2022-12-18T04:29:39;299.40;;;113.17;;
12114;SDS011;6121;49.810;6.418;2022-12-18T04:32:04;260.27;;;102.07;;
12114;SDS011;6121;49.810;6.418;2022-12-18T04:34:30;279.95;;;113.95;;
12114;SDS011;6121;49.810;6.418;2022-12-18T04:36:56;268.08;;;103.07;;
12114;SDS011;6121;49.810;6.418;2022-12-18T04:39:21;287.27;;;119.43;;
12114;SDS011;6121;49.810;6.418;2022-12-18T04:41:47;273.33;;;104.37;;
12114;SDS011;6121;49.810;6.418;2022-12-18T04:44:13;290.60;;;110.07;;
12114;SDS011;6121;49.810;6.418;2022-12-18T04:46:39;287.65;;;106.60;;
12114;SDS011;6121;49.810;6.418;2022-12-18T04:49:04;304.50;;;115.82;;
12114;SDS011;6121;49.810;6.418;2022-12-18T04:51:30;283.42;;;107.65;;
12114;SDS011;6121;49.810;6.418;2022-12-18T04:53:55;285.10;;;109.77;;
12114;SDS011;6121;49.810;6.418;2022-12-18T04:56:21;298.20;;;104.43;;
12114;SDS011;6121;49.810;6.418;2022-12-18T04:58:47;311.73;;;114.22;;
12114;SDS011;6121;49.810;6.418;2022-12-18T05:01:13;290.27;;;104.47;;
12114;SDS011;6121;49.810;6.418;2022-12-18T05:03:41;304.80;;;109.05;;
12114;SDS011;6121;49.810;6.418;2022-12-18T05:06:07;295.00;;;102.82;;
12114;SDS011;6121;49.810;6.418;2022-12-18T05:08:33;292.27;;;106.70;;
12114;SDS011;6121;49.810;6.418;2022-12-18T05:11:00;294.70;;;107.90;;
12114;SDS011;6121;49.810;6.418;2022-12-18T05:13:26;305.13;;;110.75;;
12114;SDS011;6121;49.810;6.418;2022-12-18T05:15:53;287.92;;;101.32;;
12114;SDS011;6121;49.810;6.418;2022-12-18T05:18:19;273.88;;;105.32;;
12114;SDS011;6121;49.810;6.418;2022-12-18T05:20:45;258.63;;;110.13;;
12114;SDS011;6121;49.810;6.418;2022-12-18T05:23:10;291.30;;;111.10;;
12114;SDS011;6121;49.810;6.418;2022-12-18T05:25:36;286.23;;;109.65;;
12114;SDS011;6121;49.810;6.418;2022-12-18T05:28:02;283.50;;;105.90;;
12114;SDS011;6121;49.810;6.418;2022-12-18T05:30:27;302.17;;;114.23;;
12114;SDS011;6121;49.810;6.418;2022-12-18T05:32:53;282.63;;;102.93;;
12114;SDS011;6121;49.810;6.418;2022-12-18T05:35:19;280.02;;;105.47;;
12114;SDS011;6121;49.810;6.418;2022-12-18T05:37:44;263.15;;;104.22;;
12114;SDS011;6121;49.810;6.418;2022-12-18T05:40:10;266.75;;;106.45;;
12114;SDS011;6121;49.810;6.418;2022-12-18T05:42:36;286.63;;;112.03;;
12114;SDS011;6121;49.810;6.418;2022-12-18T05:45:02;290.40;;;108.20;;
12114;SDS011;6121;49.810;6.418;2022-12-18T05:47:29;274.85;;;101.95;;
12114;SDS011;6121;49.810;6.418;2022-12-18T05:49:54;250.57;;;107.50;;
12114;SDS011;6121;49.810;6.418;2022-12-18T05:52:20;279.17;;;110.37;;
12114;SDS011;6121;49.810;6.418;2022-12-18T05:54:46;277.25;;;107.05;;
12114;SDS011;6121;49.810;6.418;2022-12-18T05:57:11;269.42;;;102.88;;
12114;SDS011;6121;49.810;6.418;2022-12-18T05:59:37;295.27;;;115.70;;
12114;SDS011;6121;49.810;6.418;2022-12-18T06:02:02;278.02;;;102.53;;
12114;SDS011;6121;49.810;6.418;2022-12-18T06:04:28;296.05;;;114.07;;
12114;SDS011;6121;49.810;6.418;2022-12-18T06:06:54;267.70;;;113.37;;
12114;SDS011;6121;49.810;6.418;2022-12-18T06:09:19;260.23;;;119.10;;
12114;SDS011;6121;49.810;6.418;2022-12-18T06:11:45;260.92;;;105.50;;
12114;SDS011;6121;49.810;6.418;2022-12-18T06:14:10;255.48;;;107.28;;
12114;SDS011;6121;49.810;6.418;2022-12-18T06:16:36;259.77;;;100.83;;
12114;SDS011;6121;49.810;6.418;2022-12-18T06:19:03;269.37;;;109.63;;
12114;SDS011;6121;49.810;6.418;2022-12-18T06:21:31;285.75;;;110.15;;
12114;SDS011;6121;49.810;6.418;2022-12-18T06:23:57;271.65;;;102.45;;
12114;SDS011;6121;49.810;6.418;2022-12-18T06:26:24;285.58;;;106.38;;
12114;SDS011;6121;49.810;6.418;2022-12-18T06:28:50;278.25;;;102.47;;
12114;SDS011;6121;49.810;6.418;2022-12-18T06:31:15;276.83;;;102.40;;
12114;SDS011;6121;49.810;6.418;2022-12-18T06:33:41;290.50;;;111.70;;
12114;SDS011;6121;49.810;6.418;2022-12-18T06:36:07;286.58;;;108.93;;
12114;SDS011;6121;49.810;6.418;2022-12-18T06:38:38;292.30;;;113.68;;
12114;SDS011;6121;49.810;6.418;2022-12-18T06:41:07;278.83;;;108.83;;
12114;SDS011;6121;49.810;6.418;2022-12-18T06:43:36;282.92;;;110.18;;
12114;SDS011;6121;49.810;6.418;2022-12-18T06:46:02;265.50;;;102.40;;
12114;SDS011;6121;49.810;6.418;2022-12-18T06:48:29;282.38;;;108.15;;
12114;SDS011;6121;49.810;6.418;2022-12-18T06:50:55;275.10;;;100.20;;
12114;SDS011;6121;49.810;6.418;2022-12-18T06:53:21;294.83;;;110.07;;
12114;SDS011;6121;49.810;6.418;2022-12-18T06:55:47;298.73;;;108.60;;
12114;SDS011;6121;49.810;6.418;2022-12-18T06:58:13;301.10;;;110.55;;
12114;SDS011;6121;49.810;6.418;2022-12-18T07:00:38;313.17;;;120.30;;
12114;SDS011;6121;49.810;6.418;2022-12-18T07:03:04;297.25;;;110.03;;
12114;SDS011;6121;49.810;6.418;2022-12-18T07:05:29;299.07;;;111.40;;
12114;SDS011;6121;49.810;6.418;2022-12-18T07:07:55;290.00;;;105.47;;
12114;SDS011;6121;49.810;6.418;2022-12-18T07:10:21;286.27;;;111.83;;
12114;SDS011;6121;49.810;6.418;2022-12-18T07:12:46;305.10;;;107.68;;
12114;SDS011;6121;49.810;6.418;2022-12-18T07:15:12;303.42;;;105.40;;
12114;SDS011;6121;49.810;6.418;2022-12-18T07:17:37;297.03;;;105.60;;
12114;SDS011;6121;49.810;6.418;2022-12-18T07:20:03;308.98;;;107.45;;
12114;SDS011;6121;49.810;6.418;2022-12-18T07:22:29;307.85;;;108.13;;
12114;SDS011;6121;49.810;6.418;2022-12-18T07:24:55;287.90;;;106.18;;
12114;SDS011;6121;49.810;6.418;2022-12-18T07:27:21;299.25;;;110.93;;
12114;SDS011;6121;49.810;6.418;2022-12-18T07:29:47;299.13;;;110.78;;
12114;SDS011;6121;49.810;6.418;2022-12-18T07:32:13;286.17;;;100.90;;
12114;SDS011;6121;49.810;6.418;2022-12-18T07:34:38;304.67;;;111.63;;
12114;SDS011;6121;49.810;6.418;2022-12-18T07:37:04;303.27;;;110.43;;
12114;SDS011;6121;49.810;6.418;2022-12-18T07:39:30;336.23;;;126.03;;
12114;SDS011;6121;49.810;6.418;2022-12-18T07:41:55;308.75;;;107.25;;
12114;SDS011;6121;49.810;6.418;2022-12-18T07:44:40;306.67;;;110.95;;
12114;SDS011;6121;49.810;6.418;2022-12-18T07:47:06;300.67;;;110.33;;
12114;SDS011;6121;49.810;6.418;2022-12-18T07:49:31;324.77;;;129.63;;
12114;SDS011;6121;49.810;6.418;2022-12-18T07:51:57;305.45;;;107.30;;
12114;SDS011;6121;49.810;6.418;2022-12-18T07:54:23;305.52;;;115.30;;
12114;SDS011;6121;49.810;6.418;2022-12-18T07:56:49;311.73;;;114.03;;
12114;SDS011;6121;49.810;6.418;2022-12-18T07:59:16;335.60;;;125.85;;
12114;SDS011;6121;49.810;6.418;2022-12-18T08:01:41;306.23;;;107.53;;
12114;SDS011;6121;49.810;6.418;2022-12-18T08:04:07;308.23;;;110.47;;
12114;SDS011;6121;49.810;6.418;2022-12-18T08:06:32;305.73;;;106.88;;
12114;SDS011;6121;49.810;6.418;2022-12-18T08:08:58;313.30;;;114.13;;
12114;SDS011;6121;49.810;6.418;2022-12-18T08:11:25;291.70;;;108.27;;
12114;SDS011;6121;49.810;6.418;2022-12-18T08:13:52;316.50;;;113.60;;
12114;SDS011;6121;49.810;6.418;2022-12-18T08:16:18;292.75;;;104.72;;
12114;SDS011;6121;49.810;6.418;2022-12-18T08:18:45;325.58;;;122.28;;
12114;SDS011;6121;49.810;6.418;2022-12-18T08:21:17;298.05;;;107.88;;
12114;SDS011;6121;49.810;6.418;2022-12-18T08:23:46;309.88;;;111.25;;
12114;SDS011;6121;49.810;6.418;2022-12-18T08:26:13;291.83;;;107.95;;
12114;SDS011;6121;49.810;6.418;2022-12-18T08:28:39;295.58;;;109.82;;
12114;SDS011;6121;49.810;6.418;2022-12-18T08:31:05;279.20;;;105.53;;
12114;SDS011;6121;49.810;6.418;2022-12-18T08:33:31;300.95;;;115.88;;
12114;SDS011;6121;49.810;6.418;2022-12-18T08:35:58;271.50;;;101.50;;
12114;SDS011;6121;49.810;6.418;2022-12-18T08:38:24;295.13;;;111.68;;
12114;SDS011;6121;49.810;6.418;2022-12-18T08:40:57;277.73;;;113.27;;
12114;SDS011;6121;49.810;6.418;2022-12-18T08:43:25;285.73;;;114.90;;
12114;SDS011;6121;49.810;6.418;2022-12-18T08:46:09;304.10;;;109.88;;
12114;SDS011;6121;49.810;6.418;2022-12-18T08:48:34;305.97;;;110.30;;
12114;SDS011;6121;49.810;6.418;2022-12-18T08:51:00;307.10;;;112.72;;
12114;SDS011;6121;49.810;6.418;2022-12-18T08:53:26;327.45;;;130.18;;
12114;SDS011;6121;49.810;6.418;2022-12-18T08:55:52;312.77;;;115.78;;
12114;SDS011;6121;49.810;6.418;2022-12-18T08:58:18;320.80;;;116.32;;
12114;SDS011;6121;49.810;6.418;2022-12-18T09:00:44;345.42;;;131.50;;
12114;SDS011;6121;49.810;6.418;2022-12-18T09:03:13;322.57;;;122.07;;
12114;SDS011;6121;49.810;6.418;2022-12-18T09:05:40;308.60;;;123.67;;
12114;SDS011;6121;49.810;6.418;2022-12-18T09:08:06;310.80;;;122.80;;
12114;SDS011;6121;49.810;6.418;2022-12-18T09:10:32;340.58;;;142.68;;
12114;SDS011;6121;49.810;6.418;2022-12-18T09:12:58;343.13;;;143.10;;
12114;SDS011;6121;49.810;6.418;2022-12-18T09:15:23;334.15;;;133.38;;
12114;SDS011;6121;49.810;6.418;2022-12-18T09:17:49;348.67;;;143.48;;
12114;SDS011;6121;49.810;6.418;2022-12-18T09:20:15;350.23;;;152.33;;
12114;SDS011;6121;49.810;6.418;2022-12-18T09:22:41;353.73;;;157.50;;
12114;SDS011;6121;49.810;6.418;2022-12-18T09:25:07;364.17;;;172.03;;
12114;SDS011;6121;49.810;6.418;2022-12-18T09:27:33;357.35;;;175.75;;
12114;SDS011;6121;49.810;6.418;2022-12-18T09:29:59;374.75;;;181.70;;
12114;SDS011;6121;49.810;6.418;2022-12-18T09:32:25;369.35;;;176.27;;
12114;SDS011;6121;49.810;6.418;2022-12-18T09:34:51;345.80;;;170.47;;
12114;SDS011;6121;49.810;6.418;2022-12-18T09:37:16;343.35;;;169.30;;
12114;SDS011;6121;49.810;6.418;2022-12-18T09:39:42;355.42;;;177.88;;
12114;SDS011;6121;49.810;6.418;2022-12-18T09:42:10;336.83;;;174.53;;
12114;SDS011;6121;49.810;6.418;2022-12-18T09:44:53;355.55;;;177.82;;
12114;SDS011;6121;49.810;6.418;2022-12-18T09:49:49;401.95;;;212.40;;
12114;SDS011;6121;49.810;6.418;2022-12-18T09:52:23;388.35;;;200.23;;
12114;SDS011;6121;49.810;6.418;2022-12-18T09:55:05;403.38;;;248.98;;
12114;SDS011;6121;49.810;6.418;2022-12-18T09:57:35;403.85;;;244.93;;
12114;SDS011;6121;49.810;6.418;2022-12-18T10:00:15;416.63;;;260.58;;
12114;SDS011;6121;49.810;6.418;2022-12-18T10:02:43;405.50;;;254.68;;
12114;SDS011;6121;49.810;6.418;2022-12-18T10:05:21;388.55;;;239.30;;
12114;SDS011;6121;49.810;6.418;2022-12-18T10:11:19;392.80;;;241.40;;
12114;SDS011;6121;49.810;6.418;2022-12-18T10:14:02;402.73;;;247.15;;
12114;SDS011;6121;49.810;6.418;2022-12-18T10:16:38;400.42;;;250.32;;
12114;SDS011;6121;49.810;6.418;2022-12-18T10:21:59;416.00;;;262.35;;
12114;SDS011;6121;49.810;6.418;2022-12-18T10:24:55;402.15;;;257.58;;
12114;SDS011;6121;49.810;6.418;2022-12-18T10:27:24;401.33;;;248.57;;
12114;SDS011;6121;49.810;6.418;2022-12-18T10:29:52;425.40;;;264.55;;
12114;SDS011;6121;49.810;6.418;2022-12-18T10:32:19;430.20;;;332.92;;
12114;SDS011;6121;49.810;6.418;2022-12-18T10:34:50;423.98;;;323.58;;
12114;SDS011;6121;49.810;6.418;2022-12-18T10:37:18;421.97;;;312.97;;
12114;SDS011;6121;49.810;6.418;2022-12-18T10:40:04;419.90;;;271.10;;
12114;SDS011;6121;49.810;6.418;2022-12-18T10:42:31;443.30;;;364.27;;
12114;SDS011;6121;49.810;6.418;2022-12-18T10:45:16;432.03;;;350.40;;
12114;SDS011;6121;49.810;6.418;2022-12-18T10:47:45;438.10;;;369.05;;
12114;SDS011;6121;49.810;6.418;2022-12-18T10:50:24;444.80;;;377.75;;
12114;SDS011;6121;49.810;6.418;2022-12-18T10:53:04;448.20;;;382.33;;
12114;SDS011;6121;49.810;6.418;2022-12-18T10:55:34;428.23;;;352.10;;
12114;SDS011;6121;49.810;6.418;2022-12-18T10:58:15;432.38;;;339.88;;
12114;SDS011;6121;49.810;6.418;2022-12-18T11:01:07;442.63;;;353.90;;
12114;SDS011;6121;49.810;6.418;2022-12-18T11:03:41;433.95;;;348.63;;
12114;SDS011;6121;49.810;6.418;2022-12-18T11:06:12;428.80;;;351.60;;
12114;SDS011;6121;49.810;6.418;2022-12-18T11:08:44;427.13;;;315.52;;
12114;SDS011;6121;49.810;6.418;2022-12-18T11:11:23;423.55;;;320.65;;
12114;SDS011;6121;49.810;6.418;2022-12-18T11:13:56;446.38;;;358.88;;
12114;SDS011;6121;49.810;6.418;2022-12-18T11:16:26;415.93;;;311.43;;
12114;SDS011;6121;49.810;6.418;2022-12-18T11:18:52;432.25;;;345.92;;
12114;SDS011;6121;49.810;6.418;2022-12-18T11:21:18;428.33;;;351.33;;
12114;SDS011;6121;49.810;6.418;2022-12-18T11:23:50;438.17;;;358.38;;
12114;SDS011;6121;49.810;6.418;2022-12-18T11:26:18;417.17;;;323.23;;
12114;SDS011;6121;49.810;6.418;2022-12-18T11:28:46;423.77;;;321.35;;
12114;SDS011;6121;49.810;6.418;2022-12-18T11:31:32;427.87;;;347.57;;
12114;SDS011;6121;49.810;6.418;2022-12-18T11:34:19;429.95;;;327.50;;
12114;SDS011;6121;49.810;6.418;2022-12-18T11:36:53;426.27;;;338.60;;
12114;SDS011;6121;49.810;6.418;2022-12-18T11:39:21;442.65;;;339.80;;
12114;SDS011;6121;49.810;6.418;2022-12-18T11:42:40;405.93;;;260.47;;
12114;SDS011;6121;49.810;6.418;2022-12-18T11:47:52;429.85;;;320.40;;
12114;SDS011;6121;49.810;6.418;2022-12-18T11:50:28;400.23;;;252.38;;
12114;SDS011;6121;49.810;6.418;2022-12-18T11:53:00;412.30;;;260.30;;
12114;SDS011;6121;49.810;6.418;2022-12-18T12:00:53;410.70;;;251.43;;
12114;SDS011;6121;49.810;6.418;2022-12-18T12:09:04;436.63;;;327.17;;
12114;SDS011;6121;49.810;6.418;2022-12-18T12:17:26;407.35;;;255.57;;
12114;SDS011;6121;49.810;6.418;2022-12-18T12:25:46;397.88;;;249.68;;
12114;SDS011;6121;49.810;6.418;2022-12-18T12:30:53;416.40;;;269.80;;
12114;SDS011;6121;49.810;6.418;2022-12-18T12:33:46;408.80;;;267.25;;
12114;SDS011;6121;49.810;6.418;2022-12-18T12:36:43;393.92;;;248.52;;
12114;SDS011;6121;49.810;6.418;2022-12-18T12:39:32;437.92;;;277.00;;
12114;SDS011;6121;49.810;6.418;2022-12-18T12:42:05;416.25;;;262.98;;
12114;SDS011;6121;49.810;6.418;2022-12-18T12:45:15;401.58;;;241.40;;
12114;SDS011;6121;49.810;6.418;2022-12-18T12:47:45;412.08;;;267.67;;
12114;SDS011;6121;49.810;6.418;2022-12-18T12:50:14;425.88;;;266.02;;
12114;SDS011;6121;49.810;6.418;2022-12-18T12:52:43;420.00;;;263.83;;
12114;SDS011;6121;49.810;6.418;2022-12-18T12:55:19;413.02;;;258.67;;
12114;SDS011;6121;49.810;6.418;2022-12-18T12:57:53;424.45;;;264.02;;
12114;SDS011;6121;49.810;6.418;2022-12-18T13:00:40;417.33;;;260.40;;
12114;SDS011;6121;49.810;6.418;2022-12-18T13:06:14;407.25;;;252.43;;
12114;SDS011;6121;49.810;6.418;2022-12-18T13:11:43;409.13;;;260.20;;
12114;SDS011;6121;49.810;6.418;2022-12-18T13:17:15;418.13;;;263.33;;
12114;SDS011;6121;49.810;6.418;2022-12-18T13:19:47;452.90;;;342.23;;
12114;SDS011;6121;49.810;6.418;2022-12-18T13:22:31;427.05;;;319.63;;
12114;SDS011;6121;49.810;6.418;2022-12-18T13:25:01;432.40;;;324.90;;
12114;SDS011;6121;49.810;6.418;2022-12-18T13:38:23;423.65;;;313.23;;
12114;SDS011;6121;49.810;6.418;2022-12-18T13:40:58;423.17;;;319.30;;
12114;SDS011;6121;49.810;6.418;2022-12-18T13:46:01;434.73;;;321.63;;
12114;SDS011;6121;49.810;6.418;2022-12-18T13:48:31;433.65;;;324.45;;
12114;SDS011;6121;49.810;6.418;2022-12-18T13:53:44;407.92;;;265.42;;
12114;SDS011;6121;49.810;6.418;2022-12-18T13:56:17;429.80;;;313.90;;
12114;SDS011;6121;49.810;6.418;2022-12-18T13:59:02;438.45;;;333.88;;
12114;SDS011;6121;49.810;6.418;2022-12-18T14:01:36;433.77;;;328.27;;
12114;SDS011;6121;49.810;6.418;2022-12-18T14:06:45;436.60;;;327.30;;
12114;SDS011;6121;49.810;6.418;2022-12-18T14:09:13;425.38;;;271.55;;
12114;SDS011;6121;49.810;6.418;2022-12-18T14:11:48;436.08;;;328.52;;
12114;SDS011;6121;49.810;6.418;2022-12-18T14:14:16;428.70;;;323.35;;
12114;SDS011;6121;49.810;6.418;2022-12-18T14:16:42;420.13;;;316.13;;
12114;SDS011;6121;49.810;6.418;2022-12-18T14:19:11;457.00;;;339.85;;
12114;SDS011;6121;49.810;6.418;2022-12-18T14:21:40;425.33;;;318.65;;
12114;SDS011;6121;49.810;6.418;2022-12-18T14:26:39;434.65;;;326.33;;
12114;SDS011;6121;49.810;6.418;2022-12-18T14:31:46;435.33;;;328.83;;
12114;SDS011;6121;49.810;6.418;2022-12-18T14:34:28;438.40;;;330.60;;
12114;SDS011;6121;49.810;6.418;2022-12-18T14:36:55;447.70;;;340.92;;
12114;SDS011;6121;49.810;6.418;2022-12-18T14:39:21;442.30;;;337.73;;
12114;SDS011;6121;49.810;6.418;2022-12-18T14:41:49;435.08;;;331.27;;
12114;SDS011;6121;49.810;6.418;2022-12-18T14:44:14;439.13;;;332.55;;
12114;SDS011;6121;49.810;6.418;2022-12-18T14:46:44;429.42;;;327.00;;
12114;SDS011;6121;49.810;6.418;2022-12-18T14:51:49;408.52;;;256.75;;
12114;SDS011;6121;49.810;6.418;2022-12-18T14:54:18;441.93;;;337.37;;
12114;SDS011;6121;49.810;6.418;2022-12-18T14:56:51;423.63;;;329.83;;
12114;SDS011;6121;49.810;6.418;2022-12-18T14:59:26;444.75;;;333.17;;
12114;SDS011;6121;49.810;6.418;2022-12-18T15:04:47;429.95;;;324.20;;
12114;SDS011;6121;49.810;6.418;2022-12-18T15:07:44;423.03;;;323.03;;
12114;SDS011;6121;49.810;6.418;2022-12-18T15:10:19;429.92;;;324.30;;
12114;SDS011;6121;49.810;6.418;2022-12-18T15:12:48;442.98;;;335.05;;
12114;SDS011;6121;49.810;6.418;2022-12-18T15:18:01;424.42;;;312.50;;
12114;SDS011;6121;49.810;6.418;2022-12-18T15:25:42;411.05;;;261.08;;
12114;SDS011;6121;49.810;6.418;2022-12-18T15:33:40;405.67;;;262.70;;
12114;SDS011;6121;49.810;6.418;2022-12-18T15:36:13;411.17;;;268.30;;
12114;SDS011;6121;49.810;6.418;2022-12-18T15:38:40;408.45;;;260.23;;
12114;SDS011;6121;49.810;6.418;2022-12-18T15:41:06;405.90;;;258.20;;
12114;SDS011;6121;49.810;6.418;2022-12-18T15:43:38;412.80;;;266.48;;
12114;SDS011;6121;49.810;6.418;2022-12-18T15:46:04;403.50;;;258.70;;
12114;SDS011;6121;49.810;6.418;2022-12-18T15:48:33;409.50;;;262.30;;
12114;SDS011;6121;49.810;6.418;2022-12-18T15:50:59;409.95;;;262.52;;
12114;SDS011;6121;49.810;6.418;2022-12-18T15:53:27;404.45;;;252.40;;
12114;SDS011;6121;49.810;6.418;2022-12-18T15:55:57;410.25;;;261.77;;
12114;SDS011;6121;49.810;6.418;2022-12-18T15:58:41;401.00;;;248.80;;
12114;SDS011;6121;49.810;6.418;2022-12-18T16:01:08;405.25;;;254.15;;
12114;SDS011;6121;49.810;6.418;2022-12-18T16:03:35;378.05;;;235.88;;
12114;SDS011;6121;49.810;6.418;2022-12-18T16:06:00;379.98;;;237.60;;
12114;SDS011;6121;49.810;6.418;2022-12-18T16:08:27;373.00;;;238.93;;
12114;SDS011;6121;49.810;6.418;2022-12-18T16:10:54;377.88;;;223.82;;
12114;SDS011;6121;49.810;6.418;2022-12-18T16:13:20;377.43;;;234.47;;